Home > Products > Valid Products > TAF

000
FTUS44 KEWX 030300 AAD
TAFSAT
TAF AMD
KSAT 030312Z 0303/0406 05006KT 1/2SM FG OVC002
     FM031800 19007KT 1SM BR OVC005=



000
FTUS44 KEWX 030200 AAB
TAFDRT
TAF AMD
KDRT 030255Z 0303/0324 13011KT P6SM OVC021
     FM030400 12006KT P6SM OVC015
     FM031000 11004KT P6SM OVC007
     FM031800 14008KT P6SM OVC015=



000
FTUS44 KEWX 030100 AAC
TAFSAT
TAF AMD
KSAT 030149Z 0302/0406 05006KT 1/2SM FG OVC003
      TEMPO 0302/0306 1/4SM FG OVC002
     FM030600 11002KT 1/2SM FG OVC002
     FM031800 19007KT 1SM BR OVC005=



000
FTUS44 KEWX 030100 AAA
TAFDRT
TAF AMD
KDRT 030141Z 0302/0324 13011KT P6SM OVC012
     FM030400 12006KT P6SM OVC007
     FM031000 11004KT P6SM OVC004
     FM031800 14008KT P6SM OVC015=



000
FTUS44 KEWX 030000 AAB
TAFSAT
TAF AMD
KSAT 030035Z 0301/0406 05006KT 1/4SM FG OVC004
     FM030600 11002KT 1/2SM FG OVC002
     FM031800 19007KT 1SM BR OVC005=



000
FTUS44 KEWX 030000 AAB
TAFSAT
TAF AMD
KSAT 030035Z 0301/0406 05006KT 1/4SM FG OVC004
     FM030600 11002KT 1/2SM FG OVC002
     FM031800 19007KT 1SM BR OVC005=



000
FTUS44 KEWX 030000 AAA
TAFAUS
TAF AMD
KAUS 030017Z 0300/0406 03006KT 1SM BR OVC003
     FM030600 VRB02KT 1/2SM FG OVC002
     FM031500 17005KT 3SM BR OVC006=



000
FTUS44 KEWX 030000 AAA
TAFAUS
TAF AMD
KAUS 030017Z 0300/0406 03006KT 1SM BR OVC003
     FM030600 VRB02KT 1/2SM FG OVC002
     FM031500 17005KT 3SM BR OVC006=



000
FTUS44 KEWX 030000 AAA
TAFSAT
TAF AMD
KSAT 030016Z 0300/0406 05006KT 1SM BR OVC004
     FM030600 11002KT 1/2SM FG OVC002
     FM031800 19007KT 1SM BR OVC005=



000
FTUS44 KEWX 030000 AAA
TAFSAT
TAF AMD
KSAT 030016Z 0300/0406 05006KT 1SM BR OVC004
     FM030600 11002KT 1/2SM FG OVC002
     FM031800 19007KT 1SM BR OVC005=



000
FTUS44 KEWX 022300
TAFDRT
TAF
KDRT 022328Z 0300/0324 13011KT P6SM OVC025
     FM030400 11009KT P6SM OVC015
     FM030700 12006KT P6SM OVC007
     FM031000 11004KT P6SM OVC004
     FM031800 14008KT P6SM OVC015=



000
FTUS44 KEWX 022300
TAFSAT
TAF
KSAT 022328Z 0300/0406 05006KT 6SM BR OVC006
     FM030200 11004KT 4SM BR OVC005
     FM030600 11002KT 1/2SM FG OVC002
     FM031800 19007KT 1SM BR OVC005=



000
FTUS44 KEWX 022300
TAFAUS
TAF
KAUS 022328Z 0300/0406 03006KT 3SM BR OVC005
     FM030200 04006KT 2SM BR OVC004
     FM030600 VRB02KT 1/2SM FG OVC002
     FM031500 17005KT 3SM BR OVC006=



000
FTUS44 KEWX 021700
TAFSAT
TAF
KSAT 021720Z 0218/0324 03009KT P6SM OVC009
     FM030000 05006KT 3SM BR OVC004
     FM030600 11004KT 1SM -DZ BR OVC003
     FM030900 11002KT 1/2SM FG OVC002
     FM031600 16005KT 3SM BR OVC006
     FM031800 19007KT P6SM OVC009=



000
FTUS44 KEWX 021700
TAFAUS
TAF
KAUS 021720Z 0218/0324 36011KT P6SM OVC009
     FM030000 03006KT 3SM BR OVC004
     FM030600 VRB02KT 1SM -DZ BR OVC003
     FM031600 17005KT 3SM BR OVC006
     FM031800 18007KT 6SM BR OVC009=



000
FTUS44 KEWX 021700
TAFDRT
TAF
KDRT 021720Z 0218/0318 32005KT P6SM OVC009
     FM021900 12006KT P6SM OVC015
     FM022100 13011KT P6SM OVC025
     FM030500 11009KT P6SM OVC007
     FM030800 12006KT 4SM BR OVC003=



000
FTUS44 KEWX 021100
TAFSAT
TAF
KSAT 021132Z 0212/0318 02009KT 6SM -DZ BR OVC009
     FM021800 02006KT 5SM BR OVC007
     FM030000 03006KT 3SM BR OVC003
     FM030900 12004KT 1SM BR OVC001=



000
FTUS44 KEWX 021100
TAFAUS
TAF
KAUS 021132Z 0212/0318 35008KT 4SM -DZ BR OVC007
     FM021700 02010KT 3SM BR OVC007
     FM030000 04004KT 2SM BR OVC004
     FM030800 07002KT 1SM BR OVC002=



000
FTUS44 KEWX 021100
TAFDRT
TAF
KDRT 021132Z 0212/0312 07005KT 3SM BR OVC006
     FM021400 VRB06KT P6SM OVC008
     FM021800 12006KT P6SM OVC015
     FM030000 13012G18KT P6SM OVC025
     FM030600 11009KT P6SM OVC007
     FM030900 12006KT 4SM BR OVC003=



000
FTUS44 KEWX 021100
TAFSAT
TAF
KSAT 021132Z 0212/0318 02009KT 6SM -DZ BR OVC009
     FM021800 02006KT 5SM BR OVC007
     FM030000 03006KT 3SM BR OVC003
     FM030900 12004KT 1SM BR OVC001=



000
FTUS44 KEWX 021100
TAFAUS
TAF
KAUS 021132Z 0212/0318 35008KT 4SM -DZ BR OVC007
     FM021700 02010KT 3SM BR OVC007
     FM030000 04004KT 2SM BR OVC004
     FM030800 07002KT 1SM BR OVC002=



000
FTUS44 KEWX 021100
TAFDRT
TAF
KDRT 021132Z 0212/0312 07005KT 3SM BR OVC006
     FM021400 VRB06KT P6SM OVC008
     FM021800 12006KT P6SM OVC015
     FM030000 13012G18KT P6SM OVC025
     FM030600 11009KT P6SM OVC007
     FM030900 12006KT 4SM BR OVC003=



000
FTUS44 KEWX 020900 AAA
TAFDRT
TAF AMD
KDRT 020925Z 0209/0306 31005KT 3SM BR OVC006
     FM021000 07005KT 3SM BR OVC004
     FM021400 VRB06KT P6SM OVC007
     FM021800 12006KT P6SM OVC015=



000
FTUS44 KEWX 020900 AAA
TAFDRT
TAF AMD
KDRT 020925Z 0209/0306 31005KT 3SM BR OVC006
     FM021000 07005KT 3SM BR OVC004
     FM021400 VRB06KT P6SM OVC007
     FM021800 12006KT P6SM OVC015=



000
FTUS44 KEWX 020900 AAA
TAFSAT
TAF AMD
KSAT 020924Z 0209/0312 02009KT 4SM -DZ BR OVC007
     FM021400 02006KT 5SM BR OVC007
     FM030000 03006KT 1SM BR OVC003=



000
FTUS44 KEWX 020900 AAA
TAFSAT
TAF AMD
KSAT 020924Z 0209/0312 02009KT 4SM -DZ BR OVC007
     FM021400 02006KT 5SM BR OVC007
     FM030000 03006KT 1SM BR OVC003=



000
FTUS44 KEWX 020900 AAA
TAFAUS
TAF AMD
KAUS 020908Z 0209/0312 36011KT 2SM -DZ BR OVC005
     FM021300 02010KT 4SM BR OVC007
     FM030000 04004KT 1SM BR OVC004=



000
FTUS44 KEWX 020500
TAFSAT
TAF
KSAT 020520Z 0206/0312 02007KT P6SM -DZ OVC007
     FM020800 02009KT 4SM BR OVC004
     FM021400 02006KT 5SM BR OVC007
     FM030000 03006KT 1SM BR OVC003=



000
FTUS44 KEWX 020500
TAFDRT
TAF
KDRT 020520Z 0206/0306 31005KT 4SM BR OVC009
     FM021000 07005KT 3SM BR OVC004
     FM021400 VRB06KT P6SM OVC007
     FM021800 12006KT P6SM OVC015=



000
FTUS44 KEWX 020500
TAFDRT
TAF
KDRT 020520Z 0206/0306 31005KT 4SM BR OVC009
     FM021000 07005KT 3SM BR OVC004
     FM021400 VRB06KT P6SM OVC007
     FM021800 12006KT P6SM OVC015=



000
FTUS44 KEWX 020500
TAFAUS
TAF
KAUS 020520Z 0206/0312 01009KT 4SM -DZ BR OVC007
     FM020900 01011KT 1 1/2SM BR OVC004
     FM021400 02010KT 4SM BR OVC007
     FM030000 04004KT 1SM BR OVC004=



000
FTUS44 KEWX 020500
TAFAUS
TAF
KAUS 020520Z 0206/0312 01009KT 4SM -DZ BR OVC007
     FM020900 01011KT 1 1/2SM BR OVC004
     FM021400 02010KT 4SM BR OVC007
     FM030000 04004KT 1SM BR OVC004=



000
FTUS44 KEWX 020500
TAFSAT
TAF
KSAT 020520Z 0206/0312 02007KT P6SM -DZ OVC007
     FM020800 02009KT 4SM BR OVC004
     FM021400 02006KT 5SM BR OVC007
     FM030000 03006KT 1SM BR OVC003=



000
FTUS44 KEWX 020400 AAB
TAFAUS
TAF AMD
KAUS 020407Z 0204/0306 01009KT 4SM -DZ BR OVC007
     FM021800 01009KT 3SM BR OVC006=



000
FTUS44 KEWX 020400 AAB
TAFAUS
TAF AMD
KAUS 020407Z 0204/0306 01009KT 4SM -DZ BR OVC007
     FM021800 01009KT 3SM BR OVC006=



000
FTUS44 KEWX 020400 AAB
TAFSAT
TAF AMD
KSAT 020406Z 0204/0306 02007KT P6SM -DZ OVC007
     FM021800 03006KT 5SM BR OVC006=



000
FTUS44 KEWX 020200 AAA
TAFDRT
TAF AMD
KDRT 020200Z 0202/0224 31005KT P6SM OVC008
     FM020900 07005KT 3SM BR OVC004
     FM021400 VRB06KT 4SM BR OVC007=



000
FTUS44 KEWX 020100 AAA
TAFAUS
TAF AMD
KAUS 020158Z 0202/0306 36010KT 2SM -DZ BR OVC007
     FM020400 01009KT 1 1/2SM -DZ BR OVC003
     FM021800 01009KT 3SM BR OVC006=



000
FTUS44 KEWX 020100 AAA
TAFAUS
TAF AMD
KAUS 020158Z 0202/0306 36010KT 2SM -DZ BR OVC007
     FM020400 01009KT 1 1/2SM -DZ BR OVC003
     FM021800 01009KT 3SM BR OVC006=



000
FTUS44 KEWX 020000 AAA
TAFSAT
TAF AMD
KSAT 020046Z 0201/0306 01009KT 4SM -DZ BR OVC006
     FM020400 02007KT 2SM -DZ BR OVC003
     FM021800 03006KT 5SM BR OVC006=



000
FTUS44 KEWX 020000 AAA
TAFSAT
TAF AMD
KSAT 020046Z 0201/0306 01009KT 4SM -DZ BR OVC006
     FM020400 02007KT 2SM -DZ BR OVC003
     FM021800 03006KT 5SM BR OVC006=



000
FTUS44 KEWX 012300
TAFDRT
TAF
KDRT 012335Z 0200/0224 31005KT P6SM OVC012
     FM020600 08006KT P6SM OVC007
     FM020900 07005KT 3SM BR OVC004
     FM021400 VRB06KT 4SM BR OVC007=



000
FTUS44 KEWX 012300
TAFSAT
TAF
KSAT 012335Z 0200/0306 01009KT 4SM -DZ BR OVC006
      TEMPO 0200/0204 2SM BR OVC005
     FM020400 02007KT 2SM -DZ BR OVC003
     FM021800 03006KT 5SM BR OVC006=



000
FTUS44 KEWX 012300
TAFAUS
TAF
KAUS 012335Z 0200/0306 36010KT 3SM -DZ BR OVC006
      TEMPO 0200/0204 1 1/2SM BR OVC005
     FM020400 01009KT 1 1/2SM -DZ BR OVC003
     FM021800 01009KT 3SM BR OVC006=



000
FTUS44 KEWX 012300
TAFDRT
TAF
KDRT 012335Z 0200/0224 31005KT P6SM OVC012
     FM020600 08006KT P6SM OVC007
     FM020900 07005KT 3SM BR OVC004
     FM021400 VRB06KT 4SM BR OVC007=



000
FTUS44 KEWX 012300
TAFAUS
TAF
KAUS 012335Z 0200/0306 36010KT 3SM -DZ BR OVC006
      TEMPO 0200/0204 1 1/2SM BR OVC005
     FM020400 01009KT 1 1/2SM -DZ BR OVC003
     FM021800 01009KT 3SM BR OVC006=



000
FTUS44 KEWX 012300
TAFSAT
TAF
KSAT 012335Z 0200/0306 01009KT 4SM -DZ BR OVC006
      TEMPO 0200/0204 2SM BR OVC005
     FM020400 02007KT 2SM -DZ BR OVC003
     FM021800 03006KT 5SM BR OVC006=



000
FTUS44 KEWX 012000 AAA
TAFAUS
TAF AMD
KAUS 012022Z 0120/0224 36010KT 5SM BR OVC006
      TEMPO 0121/0123 2SM -DZ BR OVC005
     FM020300 01009KT 2SM -DZ BR OVC004
     FM021800 01009KT 3SM BR OVC006=



000
FTUS44 KEWX 012000 AAA
TAFSAT
TAF AMD
KSAT 012020Z 0120/0224 01009KT 6SM BR OVC006
      TEMPO 0120/0122 3SM -DZ BR
     FM020300 02007KT 2SM -DZ BR OVC003
     FM021800 03006KT 5SM BR OVC006=



000
FTUS44 KEWX 011700 CCA
TAFSAT
TAF COR
KSAT 011758Z 0118/0224 01009KT 6SM BR OVC006
     FM020300 02007KT 2SM -DZ BR OVC003
     FM021800 03006KT 5SM BR OVC006=



000
FTUS44 KEWX 011700 CCA
TAFDRT
TAF COR
KDRT 011758Z 0118/0218 30006KT 6SM BR OVC009
     FM012000 11005KT P6SM OVC011
     FM020600 08006KT P6SM OVC007
     FM020900 07005KT 3SM BR OVC004=



000
FTUS44 KEWX 011700
TAFDRT
TAF
KDRT 011738Z 0118/0218 30006KT 5SM BR OVC006
     FM012000 11005KT P6SM OVC010
     FM020600 08006KT P6SM OVC007
     FM020900 07005KT 3SM BR OVC004=



000
FTUS44 KEWX 011700
TAFSAT
TAF
KSAT 011738Z 0118/0224 01009KT 6SM BR OVC005
     FM020300 02007KT 2SM -DZ BR OVC003
     FM021800 03006KT 5SM BR OVC006=



000
FTUS44 KEWX 011700
TAFAUS
TAF
KAUS 011738Z 0118/0224 36010KT 5SM BR OVC005
      TEMPO 0118/0120 2SM -DZ BR OVC004
     FM020300 01009KT 2SM -DZ BR OVC004
     FM021800 01009KT 3SM BR OVC006=



000
FTUS44 KEWX 011400 AAB
TAFDRT
TAF AMD
KDRT 011402Z 0114/0212 15003KT 4SM BR BKN004 OVC010
      TEMPO 0114/0117 1 1/2SM BR OVC004
     FM011800 14005KT P6SM OVC010
     FM020200 10009KT P6SM OVC007
     FM020600 09006KT 6SM BR OVC003=



000
FTUS44 KEWX 011400 AAB
TAFDRT
TAF AMD
KDRT 011402Z 0114/0212 15003KT 4SM BR BKN004 OVC010
      TEMPO 0114/0117 1 1/2SM BR OVC004
     FM011800 14005KT P6SM OVC010
     FM020200 10009KT P6SM OVC007
     FM020600 09006KT 6SM BR OVC003=



000
FTUS44 KEWX 011400 AAA
TAFAUS
TAF AMD
KAUS 011401Z 0114/0218 36009KT 3SM -DZ BR OVC005
      TEMPO 0114/0118 1SM -DZ BR OVC003
     FM011800 01010KT 3SM BR VCSH OVC007
     FM020300 02010KT 4SM BR OVC005
     FM021100 01010KT 3SM BR OVC003=



000
FTUS44 KEWX 011400 AAA
TAFAUS
TAF AMD
KAUS 011401Z 0114/0218 36009KT 3SM -DZ BR OVC005
      TEMPO 0114/0118 1SM -DZ BR OVC003
     FM011800 01010KT 3SM BR VCSH OVC007
     FM020300 02010KT 4SM BR OVC005
     FM021100 01010KT 3SM BR OVC003=



000
FTUS44 KEWX 011300 CCA
TAFSAT
TAF COR
KSAT 011359Z 0114/0218 01007KT 3SM BR OVC007
      TEMPO 0114/0118 1SM -DZ BR OVC003
     FM012000 03005KT 5SM BR OVC010
     FM021100 02005KT 3SM BR OVC003=



000
FTUS44 KEWX 011300 CCA
TAFSAT
TAF COR
KSAT 011359Z 0114/0218 01007KT 3SM BR OVC007
      TEMPO 0114/0118 1SM -DZ BR OVC003
     FM012000 03005KT 5SM BR OVC010
     FM021100 02005KT 3SM BR OVC003=



000
FTUS44 KEWX 011300 AAA
TAFSAT
TAF AMD
KSAT 011356Z 0114/0218 01007KT 3SM BR OVC007
      TEMPO 0114/0118 1SM -DZ BR OVC005
     FM012000 03005KT 5SM BR OVC010
     FM021100 02005KT 3SM BR OVC003=



000
FTUS44 KEWX 011300 AAA
TAFDRT
TAF AMD
KDRT 011309Z 0113/0212 15003KT 4SM BR BKN004 OVC010
     FM011800 14005KT P6SM OVC010
     FM020200 10009KT P6SM OVC007
     FM020600 09006KT 6SM BR OVC003=



000
FTUS44 KEWX 011300 AAA
TAFDRT
TAF AMD
KDRT 011309Z 0113/0212 15003KT 4SM BR BKN004 OVC010
     FM011800 14005KT P6SM OVC010
     FM020200 10009KT P6SM OVC007
     FM020600 09006KT 6SM BR OVC003=



000
FTUS44 KEWX 011100
TAFAUS
TAF
KAUS 011139Z 0112/0218 36009KT 3SM -DZ BR OVC005
     FM011600 01010KT 3SM BR VCSH OVC007
     FM020300 02010KT 4SM BR OVC005
     FM021100 01010KT 3SM BR OVC003=



000
FTUS44 KEWX 011100
TAFDRT
TAF
KDRT 011139Z 0112/0212 15003KT 4SM BR BKN012 OVC020
     FM011800 14005KT P6SM OVC015
     FM020200 10009KT P6SM OVC007
     FM020600 09006KT 6SM BR OVC003=



000
FTUS44 KEWX 011100
TAFSAT
TAF
KSAT 011139Z 0112/0218 VRB03KT 4SM -DZ BR OVC007
     FM011600 02006KT 3SM BR VCSH OVC007
     FM012000 03005KT 5SM BR OVC010
     FM021100 02005KT 3SM BR OVC003=



000
FTUS44 KEWX 010900 AAA
TAFSAT
TAF AMD
KSAT 010956Z 0110/0212 VRB03KT 2SM -DZ BR OVC005
      TEMPO 0110/0113 1/2SM FG OVC002
     FM011600 01003KT 1SM BR OVC003
     FM011900 03005KT 5SM BR OVC005=



000
FTUS44 KEWX 010900 AAA
TAFAUS
TAF AMD
KAUS 010956Z 0110/0212 36009KT 2SM -DZ BR OVC004
      TEMPO 0110/0113 1/2SM FG OVC002
     FM011600 01004KT 1SM BR OVC003
     FM011900 02006KT 4SM BR OVC006=



000
FTUS44 KEWX 010900 AAA
TAFSAT
TAF AMD
KSAT 010956Z 0110/0212 VRB03KT 2SM -DZ BR OVC005
      TEMPO 0110/0113 1/2SM FG OVC002
     FM011600 01003KT 1SM BR OVC003
     FM011900 03005KT 5SM BR OVC005=



000
FTUS44 KEWX 010900 AAA
TAFAUS
TAF AMD
KAUS 010956Z 0110/0212 36009KT 2SM -DZ BR OVC004
      TEMPO 0110/0113 1/2SM FG OVC002
     FM011600 01004KT 1SM BR OVC003
     FM011900 02006KT 4SM BR OVC006=



000
FTUS44 KEWX 010500
TAFAUS
TAF
KAUS 010520Z 0106/0212 03003KT 2SM -DZ BR OVC006
      TEMPO 0109/0113 1/4SM FG OVC001
     FM011600 01004KT 1SM BR OVC003
     FM011900 02006KT 4SM BR OVC006=



000
FTUS44 KEWX 010500
TAFSAT
TAF
KSAT 010520Z 0106/0212 04005KT 2SM -DZ BR OVC007
     FM010900 VRB03KT 1/2SM FG OVC002
      TEMPO 0109/0113 1/4SM FG OVC001
     FM011600 01003KT 1SM BR OVC003
     FM011900 03005KT 5SM BR OVC005=



000
FTUS44 KEWX 010500
TAFSAT
TAF
KSAT 010520Z 0106/0212 04005KT 2SM -DZ BR OVC007
     FM010900 VRB03KT 1/2SM FG OVC002
      TEMPO 0109/0113 1/4SM FG OVC001
     FM011600 01003KT 1SM BR OVC003
     FM011900 03005KT 5SM BR OVC005=



000
FTUS44 KEWX 010500
TAFDRT
TAF
KDRT 010520Z 0106/0206 10006KT 2SM BR OVC003
     FM010800 10005KT 1/2SM FG OVC002
     FM011300 VRB03KT 1SM BR OVC004
     FM011500 14005KT P6SM OVC009=



000
FTUS44 KEWX 010500
TAFAUS
TAF
KAUS 010520Z 0106/0212 03003KT 2SM -DZ BR OVC006
      TEMPO 0109/0113 1/4SM FG OVC001
     FM011600 01004KT 1SM BR OVC003
     FM011900 02006KT 4SM BR OVC006=



000
FTUS44 KEWX 010500
TAFDRT
TAF
KDRT 010520Z 0106/0206 10006KT 2SM BR OVC003
     FM010800 10005KT 1/2SM FG OVC002
     FM011300 VRB03KT 1SM BR OVC004
     FM011500 14005KT P6SM OVC009=



000
FTUS44 KEWX 010200 AAB
TAFSAT
TAF AMD
KSAT 010225Z 0102/0206 04005KT 1 1/2SM -DZ BR OVC007
     FM010900 VRB03KT 1/2SM FG OVC002
      TEMPO 0109/0113 1/4SM FG OVC001
     FM011600 01003KT 1SM BR OVC003
     FM011900 03005KT 5SM BR OVC005=



000
FTUS44 KEWX 010200 AAB
TAFSAT
TAF AMD
KSAT 010225Z 0102/0206 04005KT 1 1/2SM -DZ BR OVC007
     FM010900 VRB03KT 1/2SM FG OVC002
      TEMPO 0109/0113 1/4SM FG OVC001
     FM011600 01003KT 1SM BR OVC003
     FM011900 03005KT 5SM BR OVC005=



000
FTUS44 KEWX 010200 AAB
TAFDRT
TAF AMD
KDRT 010205Z 0102/0124 10007KT 5SM BR OVC006
     FM010400 10006KT 3SM BR OVC003
     FM010800 10005KT 1SM BR OVC002
     FM011500 14005KT P6SM OVC009=



000
FTUS44 KEWX 010200 AAA
TAFSAT
TAF AMD
KSAT 010203Z 0102/0206 04005KT 3SM -DZ BR OVC007
     FM010900 VRB03KT 1/2SM FG OVC002
      TEMPO 0109/0113 1/4SM FG OVC001
     FM011600 01003KT 1SM BR OVC003
     FM011900 03005KT 5SM BR OVC005=



000
FTUS44 KEWX 010200 AAB
TAFAUS
TAF AMD
KAUS 010202Z 0102/0206 03003KT 1SM BR OVC006
      TEMPO 0109/0113 1/4SM FG OVC001
     FM011600 01004KT 1SM BR OVC003
     FM011900 02006KT 4SM BR OVC006=



000
FTUS44 KEWX 010200 AAB
TAFAUS
TAF AMD
KAUS 010202Z 0102/0206 03003KT 1SM BR OVC006
      TEMPO 0109/0113 1/4SM FG OVC001
     FM011600 01004KT 1SM BR OVC003
     FM011900 02006KT 4SM BR OVC006=



000
FTUS44 KEWX 010100 AAA
TAFDRT
TAF AMD
KDRT 010122Z 0101/0124 10007KT P6SM OVC009
     FM010300 11007KT 6SM BR OVC007
     FM010600 10006KT 4SM BR OVC003
     FM011000 10005KT 1SM BR OVC002
     FM011700 14005KT P6SM OVC009=



000
FTUS44 KEWX 010100 AAA
TAFDRT
TAF AMD
KDRT 010122Z 0101/0124 10007KT P6SM OVC009
     FM010300 11007KT 6SM BR OVC007
     FM010600 10006KT 4SM BR OVC003
     FM011000 10005KT 1SM BR OVC002
     FM011700 14005KT P6SM OVC009=



000
FTUS44 KEWX 010100 AAA
TAFAUS
TAF AMD
KAUS 010121Z 0101/0206 03007KT 2SM BR OVC006
     FM010200 03003KT 1SM BR OVC005
      TEMPO 0109/0113 1/4SM FG OVC001
     FM011600 01004KT 1SM BR OVC003
     FM011900 02006KT 4SM BR OVC006=



000
FTUS44 KEWX 282300
TAFSAT
TAF
KSAT 282331Z 0100/0206 04005KT 1SM BR OVC006
     FM010900 VRB03KT 1/2SM FG OVC002
      TEMPO 0109/0113 1/4SM FG OVC001
     FM011600 01003KT 1SM BR OVC003
     FM011900 03005KT 5SM BR OVC005=



000
FTUS44 KEWX 282300
TAFAUS
TAF
KAUS 282331Z 0100/0206 03007KT 1SM BR OVC004
     FM010200 03003KT 1/2SM FG OVC003
      TEMPO 0109/0113 1/4SM FG OVC001
     FM011600 01004KT 1SM BR OVC003
     FM011900 02006KT 4SM BR OVC006=



000
FTUS44 KEWX 282300
TAFDRT
TAF
KDRT 282331Z 0100/0124 10007KT P6SM OVC012
     FM010300 11007KT 6SM BR OVC008
     FM010600 10006KT 4SM BR OVC003
     FM011000 10005KT 1SM BR OVC002
     FM011700 14005KT P6SM OVC009=



000
FTUS44 KEWX 282200 AAC
TAFAUS
TAF AMD
KAUS 282235Z 2823/0124 01010KT 1SM -DZ BR BKN005
     FM010000 03007KT 1SM BR OVC004
     FM010900 03003KT 1/2SM FG OVC003
     FM011600 01004KT 1SM BR OVC003
     FM011900 02006KT 5SM BR OVC006=



000
FTUS44 KEWX 282200 AAC
TAFAUS
TAF AMD
KAUS 282235Z 2823/0124 01010KT 1SM -DZ BR BKN005
     FM010000 03007KT 1SM BR OVC004
     FM010900 03003KT 1/2SM FG OVC003
     FM011600 01004KT 1SM BR OVC003
     FM011900 02006KT 5SM BR OVC006=



000
FTUS44 KEWX 282100 AAB
TAFAUS
TAF AMD
KAUS 282147Z 2822/0124 01010KT 6SM BR OVC010
      TEMPO 2822/2824 1SM -DZ BR BKN007
     FM010000 03007KT 1SM BR OVC004
     FM010900 03003KT 1/2SM FG OVC003
     FM011600 01004KT 1SM BR OVC003
     FM011900 02006KT 5SM BR OVC006=



000
FTUS44 KEWX 282100 AAB
TAFAUS
TAF AMD
KAUS 282147Z 2822/0124 01010KT 6SM BR OVC010
      TEMPO 2822/2824 1SM -DZ BR BKN007
     FM010000 03007KT 1SM BR OVC004
     FM010900 03003KT 1/2SM FG OVC003
     FM011600 01004KT 1SM BR OVC003
     FM011900 02006KT 5SM BR OVC006=



000
FTUS44 KEWX 282000 CCA
TAFSAT
TAF COR
KSAT 282057Z 2821/0124 01008KT 3SM BR OVC008
      TEMPO 2821/2824 1SM -DZ BR OVC005
     FM010000 04005KT 1SM BR OVC004
     FM010900 VRB03KT 1/2SM FG OVC002
     FM011600 01003KT 1SM BR OVC003
     FM011900 03005KT 5SM BR OVC005=



000
FTUS44 KEWX 282000 CCA
TAFSAT
TAF COR
KSAT 282057Z 2821/0124 01008KT 3SM BR OVC008
      TEMPO 2821/2824 1SM -DZ BR OVC005
     FM010000 04005KT 1SM BR OVC004
     FM010900 VRB03KT 1/2SM FG OVC002
     FM011600 01003KT 1SM BR OVC003
     FM011900 03005KT 5SM BR OVC005=



000
FTUS44 KEWX 282000 AAA
TAFSAT
TAF AMD
KSAT 282056Z 2821/0124 03008KT 3SM BR OVC008
      TEMPO 2821/2824 1SM -DZ BR OVC005
     FM010000 06005KT 1SM BR OVC004
     FM010900 VRB03KT 1/2SM FG OVC002
     FM011600 01003KT 1SM BR OVC003
     FM011900 03005KT 5SM BR OVC005=



000
FTUS44 KEWX 282000 AAA
TAFSAT
TAF AMD
KSAT 282056Z 2821/0124 03008KT 3SM BR OVC008
      TEMPO 2821/2824 1SM -DZ BR OVC005
     FM010000 06005KT 1SM BR OVC004
     FM010900 VRB03KT 1/2SM FG OVC002
     FM011600 01003KT 1SM BR OVC003
     FM011900 03005KT 5SM BR OVC005=



000
FTUS44 KEWX 282000 AAA
TAFAUS
TAF AMD
KAUS 282054Z 2821/0124 01010KT 6SM BR OVC010
      TEMPO 2821/2824 4SM -DZ BR BKN008
     FM010000 03007KT 2SM BR OVC004
     FM010900 03003KT 1/2SM FG OVC003
     FM011600 01004KT 1SM BR OVC003
     FM011900 02006KT 5SM BR OVC006=



000
FTUS44 KEWX 282000 AAA
TAFAUS
TAF AMD
KAUS 282054Z 2821/0124 01010KT 6SM BR OVC010
      TEMPO 2821/2824 4SM -DZ BR BKN008
     FM010000 03007KT 2SM BR OVC004
     FM010900 03003KT 1/2SM FG OVC003
     FM011600 01004KT 1SM BR OVC003
     FM011900 02006KT 5SM BR OVC006=



000
FTUS44 KEWX 281700
TAFSAT
TAF
KSAT 281720Z 2818/0124 03008KT 6SM BR OVC008
      TEMPO 2818/2822 3SM -DZ BR OVC007
     FM010000 06005KT 1SM BR OVC004
     FM010900 VRB03KT 1/2SM FG OVC002
     FM011600 01003KT 1SM BR OVC003
     FM011900 03005KT 5SM BR OVC005=



000
FTUS44 KEWX 281700
TAFDRT
TAF
KDRT 281720Z 2818/0118 10007KT P6SM OVC012
     FM010300 11007KT P6SM OVC008
     FM010600 10006KT 4SM BR OVC003
     FM011700 14005KT P6SM OVC009=



000
FTUS44 KEWX 281700
TAFAUS
TAF
KAUS 281720Z 2818/0124 01010KT 6SM BR OVC010
      TEMPO 2818/2822 4SM -DZ BR BKN008
     FM010000 03007KT 2SM BR OVC004
     FM010900 03003KT 1/2SM FG OVC003
     FM011600 01004KT 1SM BR OVC003
     FM011900 02006KT 5SM BR OVC006=



000
FTUS44 KEWX 281700
TAFAUS
TAF
KAUS 281720Z 2818/0124 01010KT 6SM BR OVC010
      TEMPO 2818/2822 4SM -DZ BR BKN008
     FM010000 03007KT 2SM BR OVC004
     FM010900 03003KT 1/2SM FG OVC003
     FM011600 01004KT 1SM BR OVC003
     FM011900 02006KT 5SM BR OVC006=



000
FTUS44 KEWX 281700
TAFDRT
TAF
KDRT 281720Z 2818/0118 10007KT P6SM OVC012
     FM010300 11007KT P6SM OVC008
     FM010600 10006KT 4SM BR OVC003
     FM011700 14005KT P6SM OVC009=



000
FTUS44 KEWX 281700
TAFSAT
TAF
KSAT 281720Z 2818/0124 03008KT 6SM BR OVC008
      TEMPO 2818/2822 3SM -DZ BR OVC007
     FM010000 06005KT 1SM BR OVC004
     FM010900 VRB03KT 1/2SM FG OVC002
     FM011600 01003KT 1SM BR OVC003
     FM011900 03005KT 5SM BR OVC005=



000
FTUS44 KEWX 281500 AAA
TAFDRT
TAF AMD
KDRT 281550Z 2816/0112 10007KT P6SM OVC009
     FM010400 11013KT 4SM BR OVC003=



000
FTUS44 KEWX 281500 AAA
TAFSAT
TAF AMD
KSAT 281548Z 2816/0118 04008KT 6SM BR OVC012
      TEMPO 2816/2819 4SM -DZ BR OVC007
     FM282200 05008KT 5SM BR OVC008
     FM010000 07008KT 1SM BR OVC004
     FM010900 09004KT 1/2SM FG OVC002
     FM011500 04004KT 1SM BR OVC003=



000
FTUS44 KEWX 281500 AAB
TAFAUS
TAF AMD
KAUS 281545Z 2816/0118 01012KT 6SM BR BKN012 OVC020
      TEMPO 2817/2819 4SM -FZDZ BR BKN008
     FM282200 05007KT 4SM BR OVC008
     FM010900 04003KT 1/2SM FG OVC003
     FM011500 04004KT 1SM BR OVC003=



000
FTUS44 KEWX 281500 AAB
TAFAUS
TAF AMD
KAUS 281545Z 2816/0118 01012KT 6SM BR BKN012 OVC020
      TEMPO 2817/2819 4SM -FZDZ BR BKN008
     FM282200 05007KT 4SM BR OVC008
     FM010900 04003KT 1/2SM FG OVC003
     FM011500 04004KT 1SM BR OVC003=



000
FTUS44 KEWX 281400 AAA
TAFAUS
TAF AMD
KAUS 281430Z 2815/0118 01010KT 5SM -FZRA BR BKN008 OVC025
     FM281600 01011KT 4SM -FZDZ BR SCT008 OVC015
     FM281800 03009KT 5SM BR SCT008 OVC020
     FM282200 07005KT 4SM BR OVC012
     FM010900 04003KT 1/2SM FG OVC003
     FM011500 04004KT 1SM BR OVC003=



000
FTUS44 KEWX 281100
TAFAUS
TAF
KAUS 281126Z 2812/0118 03010KT 6SM -FZDZ BR SCT010 OVC025
     FM281500 02011KT 4SM -DZ OVC015
     FM282200 07005KT 4SM BR OVC012
     FM010900 04003KT 1/2SM FG OVC003
     FM011500 04004KT 1SM BR OVC003=



000
FTUS44 KEWX 281100
TAFDRT
TAF
KDRT 281126Z 2812/0112 11011KT 5SM BR OVC005
     FM281900 11007KT P6SM BKN007
     FM010400 11013KT 4SM BR OVC003=



000
FTUS44 KEWX 281100
TAFSAT
TAF
KSAT 281126Z 2812/0118 04008KT 5SM -DZ BR OVC015
     FM281600 04008KT 4SM -DZ BR OVC007
     FM010000 07008KT 1SM BR OVC004
     FM010900 09004KT 1/2SM FG OVC002
     FM011500 04004KT 1SM BR OVC003=



000
FTUS44 KEWX 281000 AAA
TAFSAT
TAF AMD
KSAT 281049Z 2811/0112 04008KT 4SM -DZ BR OVC015
     FM281600 04008KT 4SM BR OVC007
     FM010000 07008KT 1SM BR OVC004=



000
FTUS44 KEWX 281000 AAA
TAFSAT
TAF AMD
KSAT 281049Z 2811/0112 04008KT 4SM -DZ BR OVC015
     FM281600 04008KT 4SM BR OVC007
     FM010000 07008KT 1SM BR OVC004=



000
FTUS44 KEWX 281000 AAA
TAFAUS
TAF AMD
KAUS 281044Z 2811/0112 03010KT 4SM -FZDZ BR SCT008 OVC015
     FM281500 02011KT 4SM -DZ OVC007
     FM282200 07005KT 2SM BR OVC004=



000
FTUS44 KEWX 281000 AAA
TAFAUS
TAF AMD
KAUS 281044Z 2811/0112 03010KT 4SM -FZDZ BR SCT008 OVC015
     FM281500 02011KT 4SM -DZ OVC007
     FM282200 07005KT 2SM BR OVC004=



000
FTUS44 KEWX 280500
TAFDRT
TAF
KDRT 280520Z 2806/0106 11011KT 6SM BR OVC006
     FM281900 11007KT P6SM BKN015
     FM010200 11013KT P6SM OVC007=



000
FTUS44 KEWX 280500
TAFSAT
TAF
KSAT 280520Z 2806/0112 04008KT 6SM -DZ BR OVC009
     FM010000 07008KT 1SM BR OVC004=



000
FTUS44 KEWX 280500
TAFAUS
TAF
KAUS 280520Z 2806/0112 03012KT 5SM BR OVC010
      TEMPO 2806/2810 4SM -FZDZ BKN009
     FM281000 03010KT 4SM -DZ BR BKN008 OVC015
     FM282200 07005KT 1SM BR OVC004=



000
FTUS44 KEWX 280500
TAFAUS
TAF
KAUS 280520Z 2806/0112 03012KT 5SM BR OVC010
      TEMPO 2806/2810 4SM -FZDZ BKN009
     FM281000 03010KT 4SM -DZ BR BKN008 OVC015
     FM282200 07005KT 1SM BR OVC004=



000
FTUS44 KEWX 280500
TAFSAT
TAF
KSAT 280520Z 2806/0112 04008KT 6SM -DZ BR OVC009
     FM010000 07008KT 1SM BR OVC004=



000
FTUS44 KEWX 280500
TAFDRT
TAF
KDRT 280520Z 2806/0106 11011KT 6SM BR OVC006
     FM281900 11007KT P6SM BKN015
     FM010200 11013KT P6SM OVC007=



    US Dept of Commerce
    National Oceanic and Atmospheric Administration
    National Weather Service
    1325 East West Highway
    Silver Spring, MD 20910
    Page Author: NWS Internet Services Team
Disclaimer
Information Quality
Credits
Glossary
Privacy Policy
Freedom of Information Act (FOIA)
About Us
Career Opportunities